Time;durP1;ratioP1;P1;durP2;ratioP2;P2;SDS_P1;SDS_P2;PMS_P1;PMS_P2;Temp;Humidity;BMP_temperature;BMP_pressure;BME280_temperature;BME280_humidity;BME280_pressure;Samples;Min_cycle;Max_cycle;Signal;HPM_P1;HPM_P2
2022/07/04 00:10:22;;;;;;;14.85;7.20;;;;;;;18.60;94.08;100511.97;713969;1174;114701;-74
2022/07/04 00:25:24;;;;;;;28.97;13.20;;;;;;;18.36;94.09;100508.55;714060;1174;114968;-74
2022/07/04 00:40:27;;;;;;;8.80;4.20;;;;;;;18.17;94.57;100495.78;713861;1174;114763;-73
2022/07/04 00:55:30;;;;;;;7.23;4.65;;;;;;;18.02;95.61;100499.23;713966;1174;115285;-73
2022/07/04 01:10:32;;;;;;;8.10;5.13;;;;;;;17.93;96.61;100492.34;713822;1174;114522;-73
2022/07/04 01:25:34;;;;;;;11.93;5.63;;;;;;;17.88;96.86;100492.86;714186;1174;114736;-73
2022/07/04 01:40:37;;;;;;;6.38;4.05;;;;;;;17.71;95.98;100492.16;714235;1174;114814;-74
2022/07/04 01:55:39;;;;;;;5.83;3.87;;;;;;;17.59;96.96;100483.78;713892;1174;114758;-72
2022/07/04 02:10:41;;;;;;;7.58;4.28;;;;;;;17.42;97.26;100492.83;713948;1174;114933;-73
2022/07/04 02:25:43;;;;;;;5.98;4.03;;;;;;;17.34;96.95;100490.23;714007;1167;114252;-73
2022/07/04 02:40:47;;;;;;;8.43;4.50;;;;;;;17.36;97.85;100498.84;714165;1174;114137;-74
2022/07/04 02:55:50;;;;;;;7.03;4.57;;;;;;;17.35;98.28;100495.35;714366;1174;115179;-73
2022/07/04 03:10:52;;;;;;;12.55;5.55;;;;;;;17.46;98.33;100518.83;714079;1174;114667;-77
2022/07/04 03:25:54;;;;;;;8.83;4.80;;;;;;;17.55;98.22;100505.52;714384;1174;114546;-73
2022/07/04 03:41:25;;;;;;;10.48;6.25;;;;;;;17.63;98.55;100510.75;714878;1173;115432;-73
2022/07/04 03:56:30;;;;;;;23.43;14.68;;;;;;;17.74;99.04;100507.70;715288;1174;114160;-73
2022/07/04 04:11:32;;;;;;;14.40;7.73;;;;;;;18.29;98.76;100495.17;714649;1173;115601;-77
2022/07/04 04:26:35;;;;;;;14.33;8.35;;;;;;;18.77;98.49;100497.48;714103;1174;115738;-76
2022/07/04 04:41:55;;;;;;;15.20;7.77;;;;;;;19.42;98.33;100497.67;714465;1174;114275;-74
2022/07/04 04:56:58;;;;;;;22.30;13.00;;;;;;;20.22;96.78;100484.30;714118;1174;114854;-74
2022/07/04 05:12:00;;;;;;;13.80;6.90;;;;;;;20.56;96.36;100496.00;714138;1174;115551;-86
2022/07/04 05:27:03;;;;;;;13.67;5.90;;;;;;;20.93;95.89;100503.78;714817;1174;115303;-80
2022/07/04 05:42:05;;;;;;;8.83;5.23;;;;;;;21.89;94.77;100496.67;714473;1174;114070;-80
2022/07/04 05:57:07;;;;;;;8.23;4.20;;;;;;;22.72;94.76;100488.16;714327;1174;115393;-80
2022/07/04 06:12:10;;;;;;;3.30;2.80;;;;;;;23.46;90.58;100470.97;714143;1174;115388;-77
2022/07/04 06:27:12;;;;;;;2.85;2.55;;;;;;;24.05;86.90;100477.74;714075;1173;115116;-75
2022/07/04 06:42:14;;;;;;;3.13;2.83;;;;;;;24.44;85.53;100482.92;714391;1174;114879;-73
2022/07/04 06:57:17;;;;;;;4.15;2.55;;;;;;;24.99;84.06;100470.58;714168;1174;115621;-73
2022/07/04 07:12:35;;;;;;;3.58;3.28;;;;;;;25.54;82.82;100491.12;713940;1174;113869;-73
2022/07/04 07:27:40;;;;;;;2.73;2.28;;;;;;;26.54;78.02;100510.95;714074;1174;115244;-73
2022/07/04 07:42:43;;;;;;;4.75;2.50;;;;;;;26.53;79.46;100508.50;714201;1174;113920;-74
2022/07/04 07:57:45;;;;;;;2.33;2.13;;;;;;;26.73;79.65;100503.56;714393;1173;114052;-74
2022/07/04 08:12:50;;;;;;;2.65;2.20;;;;;;;27.72;79.57;100493.56;714455;1174;114813;-74
2022/07/04 08:27:52;;;;;;;2.68;2.13;;;;;;;28.97;75.34;100477.22;714017;1174;115166;-74
2022/07/04 08:42:56;;;;;;;2.35;1.85;;;;;;;28.71;73.36;100461.55;713929;1174;113907;-73
2022/07/04 09:13:21;;;;;;;2.83;2.20;;;;;;;28.96;71.15;100476.41;714167;1174;114243;-72
2022/07/04 09:28:28;;;;;;;2.30;1.90;;;;;;;29.98;70.12;100481.13;714160;1173;115314;-73
2022/07/04 09:43:31;;;;;;;4.78;2.30;;;;;;;29.27;68.43;100497.55;714486;1173;113865;-74
2022/07/04 09:58:35;;;;;;;3.38;2.03;;;;;;;30.07;69.03;100478.77;714074;1174;114085;-73
2022/07/04 10:13:38;;;;;;;4.33;1.90;;;;;;;31.71;65.46;100466.83;715056;1174;114890;-73
2022/07/04 10:28:42;;;;;;;2.60;1.90;;;;;;;30.97;63.99;100452.64;714332;1174;115665;-73
2022/07/04 10:44:14;;;;;;;2.30;2.10;;;;;;;32.75;59.51;100432.09;714187;1174;114654;-73
2022/07/04 10:59:19;;;;;;;3.73;2.50;;;;;;;31.57;58.60;100444.87;713893;1174;114418;-74
2022/07/04 11:14:31;;;;;;;3.15;1.68;;;;;;;29.32;63.09;100444.38;714572;1177;114008;-74
2022/07/04 11:29:34;;;;;;;4.70;2.13;;;;;;;28.13;66.64;100455.66;714143;1174;114321;-74
2022/07/04 12:00:03;;;;;;;2.60;2.40;;;;;;;26.37;73.29;100399.80;714207;1174;113897;-74
2022/07/04 12:15:07;;;;;;;4.08;2.78;;;;;;;27.36;73.21;100376.33;714047;1174;115282;-75
2022/07/04 12:30:11;;;;;;;2.95;2.25;;;;;;;28.49;72.86;100404.07;714244;1174;114712;-74
2022/07/04 12:45:14;;;;;;;3.70;2.15;;;;;;;29.31;70.95;100399.56;714111;1174;114945;-74
2022/07/04 13:00:17;;;;;;;3.07;2.60;;;;;;;30.29;70.06;100394.77;714283;1174;115277;-73
2022/07/04 13:15:38;;;;;;;5.45;2.63;;;;;;;31.31;66.27;100400.70;714083;1174;114275;-76
2022/07/04 13:30:40;;;;;;;1.78;1.60;;;;;;;32.28;61.46;100393.48;714171;1174;115697;-77
2022/07/04 13:45:46;;;;;;;2.37;1.37;;;;;;;33.45;56.86;100390.30;714453;1174;116051;-76
2022/07/04 14:00:49;;;;;;;2.20;1.98;;;;;;;32.72;55.98;100389.20;714726;1174;113868;-74
2022/07/04 14:15:51;;;;;;;2.23;1.60;;;;;;;32.09;55.66;100383.22;714515;1174;114786;-74
2022/07/04 14:30:54;;;;;;;1.90;1.75;;;;;;;32.23;55.77;100372.63;714404;1174;115213;-73
2022/07/04 14:45:58;;;;;;;2.03;1.30;;;;;;;32.13;53.39;100364.49;714337;1174;115234;-84
2022/07/04 15:01:02;;;;;;;1.83;1.20;;;;;;;32.02;54.15;100356.39;714392;1174;115159;-77
2022/07/04 15:16:05;;;;;;;3.60;1.70;;;;;;;31.64;53.43;100358.67;713995;1174;115330;-80
2022/07/04 15:31:24;;;;;;;2.00;1.35;;;;;;;32.19;54.34;100366.13;714244;1174;114762;-79
2022/07/04 15:46:27;;;;;;;2.80;1.80;;;;;;;32.13;54.69;100359.06;714483;1173;115451;-78
2022/07/04 16:01:30;;;;;;;2.45;1.95;;;;;;;31.91;55.94;100371.06;714333;1174;115741;-80
2022/07/04 16:16:32;;;;;;;6.13;5.63;;;;;;;31.62;56.52;100366.28;714129;1174;114580;-79
2022/07/04 16:31:35;;;;;;;9.00;7.50;;;;;;;31.09;56.26;100371.97;714053;1174;115542;-80
2022/07/04 16:46:38;;;;;;;3.57;3.00;;;;;;;30.11;58.27;100357.37;714327;1174;114219;-79
2022/07/04 17:01:41;;;;;;;4.77;3.97;;;;;;;29.65;60.17;100357.91;714240;1174;114226;-80
2022/07/04 17:16:44;;;;;;;5.20;2.60;;;;;;;29.73;60.90;100356.61;714395;1174;115040;-78
2022/07/04 17:31:47;;;;;;;12.23;8.10;;;;;;;29.78;61.04;100370.16;714363;1174;115200;-78
2022/07/04 17:46:50;;;;;;;6.80;4.15;;;;;;;28.28;62.99;100379.53;714284;1174;115316;-79
2022/07/04 18:01:52;;;;;;;2.80;2.40;;;;;;;26.74;69.37;100384.14;714341;1174;115756;-82
2022/07/04 18:16:54;;;;;;;10.43;4.83;;;;;;;26.47;71.49;100404.55;714463;1174;115558;-80
2022/07/04 18:31:57;;;;;;;10.30;6.93;;;;;;;26.01;72.65;100407.88;715001;1174;115058;-87
2022/07/04 18:47:00;;;;;;;8.17;6.93;;;;;;;25.72;74.28;100423.88;714938;1174;115535;-80
2022/07/04 19:02:03;;;;;;;12.33;8.18;;;;;;;25.19;76.32;100448.83;714719;1174;114149;-81
2022/07/04 19:17:06;;;;;;;12.73;6.33;;;;;;;24.68;77.90;100454.45;714348;1174;115991;-81
2022/07/04 19:32:10;;;;;;;8.78;4.88;;;;;;;24.21;79.95;100478.23;714503;1174;114366;-82
2022/07/04 19:47:13;;;;;;;8.10;4.85;;;;;;;23.56;81.49;100490.86;715041;1174;115268;-82
2022/07/04 20:02:16;;;;;;;8.53;5.50;;;;;;;23.13;83.63;100514.76;715145;1174;114267;-82
2022/07/04 20:17:22;;;;;;;9.58;4.80;;;;;;;22.89;84.49;100531.30;714275;1174;114693;-82
2022/07/04 20:32:26;;;;;;;7.40;4.10;;;;;;;22.62;86.14;100540.42;714283;1174;117255;-80
2022/07/04 20:47:30;;;;;;;4.33;3.80;;;;;;;22.60;87.36;100554.81;714763;1174;115706;-82
2022/07/04 21:02:33;;;;;;;4.55;3.90;;;;;;;22.24;87.96;100569.41;714793;1174;115301;-81
2022/07/04 21:17:35;;;;;;;6.33;4.80;;;;;;;21.95;89.37;100578.65;714630;1174;115357;-80
2022/07/04 21:32:38;;;;;;;2.90;2.60;;;;;;;21.59;88.93;100593.97;714056;1174;115328;-83
2022/07/04 21:47:40;;;;;;;3.83;2.70;;;;;;;21.59;88.65;100604.64;714430;1174;115041;-79
2022/07/04 22:02:42;;;;;;;3.75;2.40;;;;;;;21.54;88.29;100624.95;713984;1174;115121;-82
2022/07/04 22:17:45;;;;;;;3.85;2.35;;;;;;;21.35;88.65;100632.62;714951;1174;115091;-82
2022/07/04 22:32:47;;;;;;;3.70;2.77;;;;;;;21.15;89.83;100629.85;714246;1174;114889;-81
2022/07/04 22:47:50;;;;;;;4.67;3.20;;;;;;;20.99;90.26;100638.18;714106;1174;115637;-81
2022/07/04 23:02:52;;;;;;;4.35;3.25;;;;;;;20.73;91.86;100631.63;713922;1174;115687;-81
2022/07/04 23:17:54;;;;;;;5.38;2.80;;;;;;;20.56;92.23;100631.05;714162;1174;115286;-80
2022/07/04 23:32:57;;;;;;;3.13;2.83;;;;;;;20.24;92.92;100646.56;714004;1173;115576;-81
2022/07/04 23:47:59;;;;;;;4.25;3.13;;;;;;;19.82;93.64;100642.84;714342;1174;115568;-81
